Time;durP1;ratioP1;P1;durP2;ratioP2;P2;SDS_P1;SDS_P2;PMS_P1;PMS_P2;Temp;Humidity;BMP_temperature;BMP_pressure;BME280_temperature;BME280_humidity;BME280_pressure;Samples;Min_cycle;Max_cycle;Signal;HPM_P1;HPM_P2
2023/08/29 03:52:24;;;;;;;7.87;5.70;;;;;;;21.91;100.00;99025.50;5716342;28;20197;-84
2023/08/29 03:55:27;;;;;;;8.93;5.32;;;;;;;21.98;100.00;99022.44;5241481;33;33563;-84
2023/08/29 03:58:31;;;;;;;8.77;5.62;;;;;;;21.97;100.00;99021.62;5241384;33;32927;-84
2023/08/29 04:01:34;;;;;;;8.25;6.10;;;;;;;21.93;100.00;99013.13;5254763;33;32980;-84
2023/08/29 04:04:37;;;;;;;11.27;5.45;;;;;;;21.91;100.00;99009.06;5255345;33;33989;-84
2023/08/29 04:07:40;;;;;;;10.63;5.47;;;;;;;21.86;100.00;99007.16;5259905;33;33424;-84
2023/08/29 04:10:43;;;;;;;8.43;5.70;;;;;;;21.86;100.00;99009.91;5272066;33;33019;-84
2023/08/29 04:13:46;;;;;;;8.00;5.45;;;;;;;21.82;100.00;98999.78;5272605;33;33051;-84
2023/08/29 04:16:49;;;;;;;8.10;5.55;;;;;;;21.91;100.00;99012.63;5247923;33;33722;-84
2023/08/29 04:19:51;;;;;;;9.68;5.90;;;;;;;21.87;100.00;99019.75;5272193;33;33553;-84
2023/08/29 04:22:55;;;;;;;12.43;6.28;;;;;;;21.96;100.00;99018.03;5251050;33;33143;-84
2023/08/29 04:26:03;;;;;;;10.35;6.18;;;;;;;22.09;100.00;99038.50;5282767;33;33172;-84
2023/08/29 04:29:06;;;;;;;8.30;5.10;;;;;;;22.28;100.00;99049.59;5269740;33;33428;-84
2023/08/29 04:32:09;;;;;;;8.80;5.60;;;;;;;22.31;100.00;99060.00;5264786;33;33693;-84
2023/08/29 04:35:12;;;;;;;9.48;5.07;;;;;;;22.43;100.00;99059.62;5271108;33;34499;-84
2023/08/29 04:38:14;;;;;;;8.90;5.15;;;;;;;22.50;100.00;99062.87;5258515;33;33764;-84
2023/08/29 04:41:17;;;;;;;9.88;5.53;;;;;;;22.57;100.00;99049.63;5246525;33;34379;-84
2023/08/29 04:44:20;;;;;;;12.55;5.45;;;;;;;22.57;100.00;99055.09;5271046;33;33383;-84
2023/08/29 04:47:23;;;;;;;9.02;5.45;;;;;;;22.62;100.00;99062.47;5270710;33;33548;-84
2023/08/29 04:50:26;;;;;;;7.53;5.15;;;;;;;22.60;100.00;99059.19;5258096;33;33989;-84
2023/08/29 04:53:29;;;;;;;8.25;5.15;;;;;;;22.60;100.00;99070.97;5272298;33;33420;-84
2023/08/29 04:56:31;;;;;;;8.57;5.10;;;;;;;22.59;100.00;99074.03;5249824;33;33449;-84
2023/08/29 04:59:34;;;;;;;11.05;5.37;;;;;;;22.67;100.00;99072.56;5260274;33;34085;-84
2023/08/29 05:02:38;;;;;;;9.90;6.05;;;;;;;22.76;100.00;99076.34;5248619;33;33611;-84
2023/08/29 05:05:45;;;;;;;6.57;5.18;;;;;;;22.76;100.00;99077.16;5239943;33;33022;-84
2023/08/29 05:08:49;;;;;;;9.13;5.00;;;;;;;22.87;100.00;99083.31;5258870;33;32985;-84
2023/08/29 05:11:52;;;;;;;10.90;5.20;;;;;;;22.95;100.00;99085.47;5248656;33;34006;-84
2023/08/29 05:14:55;;;;;;;9.15;5.10;;;;;;;22.95;100.00;99077.25;5248413;33;33876;-84
2023/08/29 05:17:58;;;;;;;9.32;5.47;;;;;;;23.05;100.00;99079.06;5272921;33;33261;-84
2023/08/29 05:21:01;;;;;;;9.35;5.20;;;;;;;23.09;100.00;99091.09;5272826;33;33089;-84
2023/08/29 05:24:04;;;;;;;8.65;4.80;;;;;;;23.01;100.00;99089.78;5225387;34;33757;-84
2023/08/29 05:27:07;;;;;;;7.70;5.10;;;;;;;23.04;100.00;99091.16;5213958;34;33798;-84
2023/08/29 05:30:10;;;;;;;6.53;4.47;;;;;;;23.02;100.00;99098.84;5225156;34;33439;-84
2023/08/29 05:33:13;;;;;;;6.60;5.25;;;;;;;22.98;100.00;99106.03;5237822;34;33285;-84
2023/08/29 05:36:16;;;;;;;9.10;4.80;;;;;;;22.96;100.00;99098.09;5225172;34;33372;-84
2023/08/29 05:39:19;;;;;;;13.02;4.95;;;;;;;23.05;100.00;99103.78;5219685;33;34691;-84
2023/08/29 05:42:23;;;;;;;11.95;5.05;;;;;;;23.06;100.00;99102.66;5234630;33;33426;-84
2023/08/29 05:45:26;;;;;;;7.07;4.47;;;;;;;23.21;100.00;99093.44;5254117;33;33817;-84
2023/08/29 05:48:29;;;;;;;11.00;4.80;;;;;;;23.20;100.00;99089.88;5246315;33;34161;-84
2023/08/29 05:51:32;;;;;;;9.52;4.35;;;;;;;23.30;100.00;99092.47;5253639;33;33215;-84
2023/08/29 05:54:38;;;;;;;7.75;4.90;;;;;;;23.44;100.00;99091.78;5254739;33;33505;-86
2023/08/29 05:57:40;;;;;;;11.30;5.37;;;;;;;23.52;100.00;99078.22;5230725;33;34292;-88
2023/08/29 06:00:43;;;;;;;8.05;4.97;;;;;;;23.60;100.00;99073.97;5249274;33;33486;-88
2023/08/29 06:03:47;;;;;;;10.40;4.78;;;;;;;23.80;100.00;99080.31;5231734;33;33324;-85
2023/08/29 06:06:50;;;;;;;9.02;4.93;;;;;;;23.91;100.00;99068.06;5230827;33;33495;-85
2023/08/29 06:09:53;;;;;;;7.72;4.62;;;;;;;23.91;100.00;99065.31;5240932;33;32913;-85
2023/08/29 06:12:56;;;;;;;7.85;5.15;;;;;;;23.93;100.00;99068.59;5229404;33;32907;-84
2023/08/29 06:15:59;;;;;;;8.32;5.32;;;;;;;23.98;100.00;99069.34;5229666;33;33834;-84
2023/08/29 06:19:01;;;;;;;7.53;4.37;;;;;;;23.96;100.00;99068.81;5254621;33;33868;-84
2023/08/29 06:22:04;;;;;;;8.05;4.50;;;;;;;24.16;100.00;99103.44;5241833;33;33409;-84
2023/08/29 06:25:09;;;;;;;12.13;5.30;;;;;;;24.13;100.00;99083.94;5255215;33;34059;-84
2023/08/29 06:28:12;;;;;;;10.68;4.95;;;;;;;24.12;100.00;99080.38;5258115;33;33452;-84
2023/08/29 06:31:15;;;;;;;8.65;4.90;;;;;;;24.08;100.00;99081.28;5236244;33;33213;-84
2023/08/29 06:34:18;;;;;;;8.80;4.78;;;;;;;23.86;100.00;99071.69;5259262;33;33231;-84
2023/08/29 06:37:21;;;;;;;9.35;4.93;;;;;;;23.86;100.00;99090.12;5240993;33;33396;-84
2023/08/29 06:40:24;;;;;;;10.32;4.82;;;;;;;23.68;100.00;99106.28;5254376;33;32912;-84
2023/08/29 06:43:27;;;;;;;15.20;5.65;;;;;;;23.58;100.00;99106.44;5240853;33;33503;-84
2023/08/29 06:46:30;;;;;;;11.52;5.30;;;;;;;23.50;100.00;99102.41;5241629;33;33668;-84
2023/08/29 06:49:32;;;;;;;7.43;5.05;;;;;;;23.44;100.00;99081.59;5240936;33;33763;-84
2023/08/29 06:52:35;;;;;;;9.60;5.47;;;;;;;23.14;100.00;99074.56;5230192;33;32968;-85
2023/08/29 06:55:38;;;;;;;11.35;6.05;;;;;;;22.86;100.00;99098.97;5230154;33;33154;-85
2023/08/29 06:58:41;;;;;;;8.80;5.07;;;;;;;22.68;100.00;99127.16;5242338;33;33708;-85
2023/08/29 07:01:44;;;;;;;8.82;5.43;;;;;;;22.59;100.00;99161.81;5254896;33;33073;-85
2023/08/29 07:04:47;;;;;;;11.32;5.32;;;;;;;22.59;100.00;99178.28;5241812;33;33018;-84
2023/08/29 07:07:50;;;;;;;7.03;4.87;;;;;;;22.54;100.00;99214.78;5241832;33;33547;-83
2023/08/29 07:10:53;;;;;;;12.35;5.50;;;;;;;22.14;100.00;99257.78;5242927;33;33489;-84
2023/08/29 07:13:56;;;;;;;15.00;5.40;;;;;;;21.68;100.00;99243.44;5250473;33;32952;-84
2023/08/29 07:16:59;;;;;;;11.93;5.43;;;;;;;21.10;100.00;99251.19;5257516;33;33356;-84
2023/08/29 07:20:11;;;;;;;9.70;5.05;;;;;;;20.56;100.00;99245.16;5256208;33;33386;-83
2023/08/29 07:23:14;;;;;;;9.38;5.55;;;;;;;20.28;100.00;99237.41;5255129;33;34652;-84
2023/08/29 07:26:17;;;;;;;10.23;5.43;;;;;;;20.00;100.00;99230.47;5243440;33;34287;-84
2023/08/29 07:29:20;;;;;;;9.25;4.82;;;;;;;19.77;100.00;99224.37;5257498;33;33488;-84
2023/08/29 07:32:23;;;;;;;10.57;5.32;;;;;;;19.74;100.00;99221.34;5257752;33;34571;-84
2023/08/29 07:35:27;;;;;;;13.60;5.55;;;;;;;19.64;100.00;99206.53;5257648;33;34903;-84
2023/08/29 07:38:31;;;;;;;7.70;4.62;;;;;;;19.72;100.00;99207.16;5260883;33;34093;-84
2023/08/29 07:41:34;;;;;;;12.60;5.70;;;;;;;19.82;100.00;99208.00;5255961;33;33992;-84
2023/08/29 07:44:36;;;;;;;14.10;7.00;;;;;;;20.03;100.00;99184.31;5243293;33;33299;-84
2023/08/29 07:47:39;;;;;;;12.55;6.90;;;;;;;20.10;100.00;99165.75;5217464;33;33633;-84
2023/08/29 07:50:42;;;;;;;10.57;6.43;;;;;;;20.13;100.00;99169.87;5238437;33;34260;-84
2023/08/29 07:53:45;;;;;;;10.60;6.70;;;;;;;20.05;100.00;99178.56;5232316;33;33011;-83
2023/08/29 07:56:48;;;;;;;12.15;6.93;;;;;;;20.10;100.00;99186.78;5239254;33;33465;-83
2023/08/29 07:59:52;;;;;;;11.65;5.97;;;;;;;20.15;100.00;99187.63;5247500;33;33539;-84
2023/08/29 08:02:55;;;;;;;12.52;6.82;;;;;;;20.25;100.00;99164.16;5253414;33;34281;-84
2023/08/29 08:05:58;;;;;;;11.75;6.22;;;;;;;20.28;100.00;99185.47;5253487;33;33547;-84
2023/08/29 08:09:03;;;;;;;12.13;6.40;;;;;;;20.26;100.00;99209.50;5239445;33;33549;-84
2023/08/29 08:12:06;;;;;;;10.48;5.87;;;;;;;20.14;100.00;99228.88;5254208;33;33515;-87
2023/08/29 08:15:09;;;;;;;14.27;7.05;;;;;;;20.10;100.00;99225.06;5240178;33;33094;-88
2023/08/29 08:18:12;;;;;;;12.10;6.65;;;;;;;20.09;100.00;99224.22;5252108;33;32232;-88
2023/08/29 08:21:15;;;;;;;14.80;7.57;;;;;;;20.09;100.00;99205.06;5240395;33;33417;-88
2023/08/29 08:24:18;;;;;;;12.65;6.43;;;;;;;20.26;100.00;99212.22;5253589;33;33268;-84
2023/08/29 08:27:21;;;;;;;12.43;7.28;;;;;;;20.33;100.00;99218.28;5229208;33;34046;-84
2023/08/29 08:30:23;;;;;;;14.00;7.25;;;;;;;20.31;100.00;99240.41;5243379;33;33717;-86
2023/08/29 08:33:26;;;;;;;13.77;7.30;;;;;;;20.22;100.00;99263.06;5227489;33;33286;-84
2023/08/29 08:36:30;;;;;;;14.30;7.68;;;;;;;20.18;100.00;99276.44;5229433;33;32973;-84
2023/08/29 08:39:33;;;;;;;16.42;6.25;;;;;;;20.00;100.00;99299.59;5231057;33;33377;-85
2023/08/29 08:42:39;;;;;;;12.10;6.30;;;;;;;20.03;100.00;99303.69;5252332;33;33566;-86
2023/08/29 08:45:43;;;;;;;12.35;6.85;;;;;;;19.97;100.00;99291.09;5231683;33;34095;-85
2023/08/29 08:48:47;;;;;;;12.40;6.80;;;;;;;19.79;100.00;99322.44;5254880;33;33397;-85
2023/08/29 08:51:50;;;;;;;12.05;5.75;;;;;;;19.70;100.00;99336.56;5255006;33;33105;-86
2023/08/29 08:54:53;;;;;;;11.88;7.10;;;;;;;19.73;100.00;99337.97;5230918;33;34265;-86
2023/08/29 08:57:56;;;;;;;16.52;6.53;;;;;;;19.74;100.00;99328.66;5254668;33;32849;-85
2023/08/29 09:00:59;;;;;;;13.30;6.28;;;;;;;19.70;100.00;99316.66;5238119;34;34535;-85
2023/08/29 09:04:03;;;;;;;9.95;5.70;;;;;;;19.56;100.00;99321.69;5242617;33;33198;-85
2023/08/29 09:07:06;;;;;;;12.23;5.78;;;;;;;19.42;100.00;99326.81;5242904;33;33354;-85
2023/08/29 09:10:15;;;;;;;10.82;6.57;;;;;;;19.32;100.00;99325.91;5238479;33;32818;-85
2023/08/29 09:13:19;;;;;;;;;;;;;;;19.29;100.00;99319.06;5239180;33;33642;-85
2023/08/29 09:16:23;;;;;;;14.80;6.85;;;;;;;19.20;100.00;99299.63;5248371;33;34226;-85
2023/08/29 09:19:33;;;;;;;8.50;5.87;;;;;;;19.18;100.00;99287.31;5231770;33;33656;-85
2023/08/29 09:22:36;;;;;;;10.32;5.35;;;;;;;19.03;100.00;99280.66;5255032;33;33784;-85
2023/08/29 09:25:40;;;;;;;12.85;6.50;;;;;;;19.09;100.00;99280.69;5231338;33;33840;-85
2023/08/29 09:28:43;;;;;;;10.60;5.96;;;;;;;19.18;100.00;99269.03;5256839;33;33091;-84
2023/08/29 09:31:47;;;;;;;12.65;6.32;;;;;;;19.24;100.00;99250.78;5244111;33;33722;-85
2023/08/29 09:34:57;;;;;;;9.10;6.05;;;;;;;19.23;100.00;99235.50;5242703;33;33276;-85
2023/08/29 09:38:00;;;;;;;13.27;5.78;;;;;;;19.28;100.00;99211.00;5239655;34;33365;-84
2023/08/29 09:41:03;;;;;;;10.98;5.62;;;;;;;19.11;100.00;99200.25;5238251;34;33126;-85
2023/08/29 09:44:13;;;;;;;8.38;5.53;;;;;;;19.00;100.00;99209.44;5227138;34;33493;-84
2023/08/29 09:47:25;;;;;;;10.02;5.40;;;;;;;19.01;100.00;99200.16;5240126;33;34252;-85
2023/08/29 09:50:29;;;;;;;9.82;6.37;;;;;;;19.05;100.00;99184.91;5247942;33;33323;-85
2023/08/29 09:53:32;;;;;;;13.73;6.25;;;;;;;19.13;100.00;99187.16;5238762;33;34359;-85
2023/08/29 09:56:42;;;;;;;11.15;6.18;;;;;;;19.20;100.00;99201.37;5244997;33;33650;-84
2023/08/29 09:59:45;;;;;;;7.55;5.37;;;;;;;19.33;100.00;99185.63;5257914;33;33585;-88
2023/08/29 10:02:54;;;;;;;13.20;5.50;;;;;;;19.15;100.00;99192.34;5248487;33;34465;-85
2023/08/29 10:06:01;;;;;;;9.82;6.10;;;;;;;19.12;100.00;99177.31;5259407;33;34088;-86
2023/08/29 10:09:04;;;;;;;9.73;5.12;;;;;;;19.09;100.00;99179.75;5255779;33;34156;-83
2023/08/29 10:12:08;;;;;;;10.57;6.50;;;;;;;19.15;100.00;99178.69;5242520;33;33262;-84
2023/08/29 10:15:11;;;;;;;12.00;5.95;;;;;;;19.26;100.00;99191.31;5255215;33;33880;-84
2023/08/29 10:18:15;;;;;;;9.10;6.45;;;;;;;19.37;100.00;99203.13;5230477;33;33428;-84
2023/08/29 10:21:21;;;;;;;8.90;5.30;;;;;;;19.45;100.00;99192.53;5254807;33;33342;-84
2023/08/29 10:24:26;;;;;;;11.25;6.28;;;;;;;19.55;100.00;99201.84;5254603;33;33155;-84
2023/08/29 10:27:33;;;;;;;11.82;6.57;;;;;;;19.61;100.00;99212.53;5255102;33;33318;-84
2023/08/29 10:30:40;;;;;;;12.27;6.32;;;;;;;19.60;100.00;99235.47;5242915;33;32929;-84
2023/08/29 10:33:43;;;;;;;13.00;6.50;;;;;;;19.55;100.00;99249.09;5250601;33;33656;-83
2023/08/29 10:36:46;;;;;;;10.85;7.22;;;;;;;19.53;100.00;99255.91;5221096;33;33046;-84
2023/08/29 10:39:52;;;;;;;10.85;6.60;;;;;;;19.38;100.00;99240.25;5241982;33;32559;-84
2023/08/29 10:43:00;;;;;;;10.68;6.30;;;;;;;19.23;100.00;99238.25;5256457;33;33350;-84
2023/08/29 10:46:09;;;;;;;14.40;8.07;;;;;;;19.42;100.00;99217.63;5242337;33;33073;-84
2023/08/29 10:49:12;;;;;;;11.98;7.40;;;;;;;19.80;100.00;99203.88;5254055;33;33289;-84
2023/08/29 10:52:18;;;;;;;11.88;6.32;;;;;;;20.29;100.00;99192.56;5242009;33;33429;-83
2023/08/29 10:55:30;;;;;;;13.43;7.10;;;;;;;20.86;100.00;99194.28;5230987;33;32855;-83
2023/08/29 10:58:35;;;;;;;14.82;6.87;;;;;;;21.31;100.00;99173.41;5255297;33;33316;-84
2023/08/29 11:01:39;;;;;;;9.50;7.00;;;;;;;21.50;100.00;99179.94;5251032;33;33428;-84
2023/08/29 11:04:42;;;;;;;10.75;6.37;;;;;;;22.09;100.00;99191.19;5249649;33;34544;-84
2023/08/29 11:08:21;;;;;;;9.70;5.93;;;;;;;23.26;100.00;99181.25;5257355;33;33794;-83
2023/08/29 11:11:24;;;;;;;9.25;6.15;;;;;;;24.34;100.00;99162.28;5257785;33;31725;-84
2023/08/29 11:14:51;;;;;;;11.50;5.95;;;;;;;25.32;100.00;99144.94;5243451;33;33351;-88
2023/08/29 11:18:19;;;;;;;13.02;5.62;;;;;;;24.97;100.00;99130.69;5255171;33;33528;-84
2023/08/29 11:21:22;;;;;;;9.05;5.25;;;;;;;25.43;100.00;99123.50;5254167;33;33504;-84
2023/08/29 11:24:26;;;;;;;8.70;5.53;;;;;;;25.65;100.00;99098.75;5242936;33;33970;-84
2023/08/29 11:27:38;;;;;;;8.65;5.25;;;;;;;26.29;100.00;99098.72;5234655;33;33374;-84
2023/08/29 11:30:40;;;;;;;8.32;5.50;;;;;;;26.73;100.00;99097.06;5241118;33;32865;-83
2023/08/29 11:33:47;;;;;;;10.40;5.28;;;;;;;26.69;100.00;99109.91;5241028;33;33325;-84
2023/08/29 11:36:51;;;;;;;6.87;4.53;;;;;;;25.86;100.00;99104.69;5240170;33;33935;-83
2023/08/29 11:39:55;;;;;;;11.30;5.70;;;;;;;25.68;100.00;99102.84;5252936;33;33299;-85
2023/08/29 11:42:59;;;;;;;9.10;4.97;;;;;;;26.56;100.00;99103.34;5252433;33;33351;-85
2023/08/29 11:46:22;;;;;;;8.38;4.70;;;;;;;27.92;100.00;99103.69;5252614;33;33279;-84
2023/08/29 11:49:25;;;;;;;9.10;4.47;;;;;;;28.75;89.24;99105.44;5253706;33;33301;-84
2023/08/29 11:52:28;;;;;;;6.82;4.10;;;;;;;28.85;92.80;99102.31;5230875;33;33076;-84
2023/08/29 11:55:31;;;;;;;8.02;4.10;;;;;;;29.43;82.62;99106.34;5231531;33;32924;-84
2023/08/29 11:58:35;;;;;;;8.25;4.20;;;;;;;29.52;79.87;99115.44;5243772;33;34222;-84
2023/08/29 12:01:38;;;;;;;5.45;3.87;;;;;;;29.88;84.67;99118.81;5241713;33;34369;-84
2023/08/29 12:04:42;;;;;;;6.32;3.90;;;;;;;30.52;80.70;99117.69;5244578;33;34603;-84
2023/08/29 12:07:49;;;;;;;6.82;3.60;;;;;;;32.53;72.21;99128.59;5242824;33;33765;-84
2023/08/29 12:10:53;;;;;;;6.70;3.58;;;;;;;34.22;61.77;99130.78;5243460;33;33438;-84
2023/08/29 12:14:07;;;;;;;5.72;3.47;;;;;;;35.62;55.46;99123.03;5243174;33;33819;-84
2023/08/29 12:17:10;;;;;;;8.32;3.58;;;;;;;36.99;49.86;99127.16;5244345;33;33999;-85
2023/08/29 12:20:13;;;;;;;5.00;3.58;;;;;;;36.02;50.18;99122.41;5255531;33;34167;-88
2023/08/29 12:23:27;;;;;;;3.83;3.42;;;;;;;35.98;49.60;99115.97;5255429;33;34444;-89
2023/08/29 12:26:29;;;;;;;6.00;3.60;;;;;;;36.97;50.28;99128.75;5255939;33;33302;-85
2023/08/29 12:29:32;;;;;;;6.78;3.87;;;;;;;37.89;48.10;99122.31;5253210;33;34087;-85
2023/08/29 12:32:35;;;;;;;5.68;3.60;;;;;;;37.97;45.80;99135.22;5242304;33;34022;-85
2023/08/29 12:35:39;;;;;;;6.10;3.50;;;;;;;36.21;50.49;99127.06;5231395;33;32978;-85
2023/08/29 12:38:41;;;;;;;7.57;2.90;;;;;;;37.05;51.34;99130.47;5255692;33;34176;-85
2023/08/29 12:41:45;;;;;;;3.55;2.72;;;;;;;36.64;47.87;99138.84;5272549;33;34105;-85
2023/08/29 12:44:47;;;;;;;5.15;2.80;;;;;;;39.11;42.93;99137.66;5260025;33;33385;-84
2023/08/29 12:47:51;;;;;;;4.30;2.80;;;;;;;37.15;46.08;99142.97;5272767;33;34126;-84
2023/08/29 12:50:54;;;;;;;5.22;2.85;;;;;;;33.86;49.42;99143.97;5272471;33;33077;-84
2023/08/29 12:53:57;;;;;;;4.90;2.50;;;;;;;33.40;53.71;99138.06;5248410;33;35025;-84
2023/08/29 12:57:00;;;;;;;5.80;2.90;;;;;;;33.57;51.03;99128.53;5236177;33;33285;-84
2023/08/29 13:00:06;;;;;;;6.70;3.12;;;;;;;31.63;55.97;99144.53;5242496;33;33767;-84
2023/08/29 13:03:10;;;;;;;6.50;3.17;;;;;;;31.55;61.33;99135.16;5242873;33;33234;-84
2023/08/29 13:06:13;;;;;;;4.07;3.08;;;;;;;31.80;58.77;99135.94;5242295;33;33477;-84
2023/08/29 13:09:16;;;;;;;5.75;3.10;;;;;;;32.02;56.21;99139.41;5242595;33;33489;-84
2023/08/29 13:12:38;;;;;;;5.60;3.10;;;;;;;33.65;54.74;99133.13;5234753;33;33369;-83
2023/08/29 13:15:41;;;;;;;6.05;3.17;;;;;;;32.62;54.21;99140.41;5242562;33;34775;-84
2023/08/29 13:18:53;;;;;;;3.78;2.80;;;;;;;33.00;54.68;99146.63;5243769;33;33513;-84
2023/08/29 13:21:56;;;;;;;4.35;2.80;;;;;;;33.22;55.71;99147.97;5231231;33;32881;-83
2023/08/29 13:24:59;;;;;;;4.05;3.17;;;;;;;32.13;56.58;99146.09;5242511;33;32899;-83
2023/08/29 13:28:02;;;;;;;3.97;2.90;;;;;;;31.96;57.27;99149.16;5242935;33;33392;-84
2023/08/29 13:31:05;;;;;;;5.25;3.35;;;;;;;32.32;57.90;99144.66;5242069;33;34079;-83
2023/08/29 13:34:07;;;;;;;5.18;3.45;;;;;;;31.36;58.08;99143.28;5241620;33;34426;-83
2023/08/29 13:37:11;;;;;;;3.87;3.33;;;;;;;31.52;60.32;99140.59;5225943;33;32736;-84
2023/08/29 13:40:13;;;;;;;6.78;3.37;;;;;;;30.64;61.58;99139.94;5254717;33;34215;-83
2023/08/29 13:43:17;;;;;;;6.25;3.35;;;;;;;31.44;62.38;99144.31;5242614;33;34334;-84
2023/08/29 13:46:20;;;;;;;6.68;3.65;;;;;;;32.04;58.94;99146.25;5255336;33;33309;-83
2023/08/29 13:49:23;;;;;;;5.15;3.33;;;;;;;30.81;62.94;99141.75;5220024;33;33386;-83
2023/08/29 13:52:26;;;;;;;5.90;3.40;;;;;;;30.32;64.31;99141.53;5231564;33;33985;-83
2023/08/29 13:55:29;;;;;;;4.10;3.03;;;;;;;29.63;66.35;99142.81;5244635;33;33250;-82
2023/08/29 13:58:32;;;;;;;4.30;2.85;;;;;;;28.96;72.33;99141.56;5232235;33;34101;-82
2023/08/29 14:01:35;;;;;;;6.00;3.40;;;;;;;27.92;75.01;99132.19;5244297;33;33741;-83
2023/08/29 14:04:38;;;;;;;7.40;3.15;;;;;;;28.13;75.98;99126.81;5257741;33;33726;-83
2023/08/29 14:07:41;;;;;;;4.20;2.95;;;;;;;27.71;83.53;99117.31;5243216;33;34261;-83
2023/08/29 14:10:44;;;;;;;6.97;3.45;;;;;;;27.50;79.18;99122.63;5231980;33;33601;-83
2023/08/29 14:13:47;;;;;;;4.37;3.20;;;;;;;27.10;83.12;99111.56;5244037;33;34447;-85
2023/08/29 14:16:50;;;;;;;6.43;3.40;;;;;;;26.66;83.67;99116.03;5242112;33;34031;-84
2023/08/29 14:19:53;;;;;;;4.35;3.37;;;;;;;26.27;86.85;99109.25;5230799;33;33565;-84
2023/08/29 14:23:00;;;;;;;4.43;3.25;;;;;;;26.62;87.51;99115.06;5241867;33;33641;-83
2023/08/29 14:26:07;;;;;;;4.10;3.42;;;;;;;26.50;86.56;99115.63;5230812;33;33065;-83
2023/08/29 14:29:10;;;;;;;4.32;3.00;;;;;;;26.93;85.32;99123.34;5254669;33;33451;-83
2023/08/29 14:32:13;;;;;;;3.60;3.25;;;;;;;26.75;85.22;99118.88;5241724;33;32931;-83
2023/08/29 14:35:16;;;;;;;3.42;2.90;;;;;;;26.13;87.94;99120.34;5230454;33;32920;-83
2023/08/29 14:38:18;;;;;;;5.43;3.25;;;;;;;26.31;91.60;99121.28;5241803;33;34039;-83
2023/08/29 14:41:22;;;;;;;4.43;3.37;;;;;;;26.61;87.60;99116.97;5230335;33;33491;-83
2023/08/29 14:44:25;;;;;;;4.87;3.08;;;;;;;26.33;87.56;99109.97;5219103;33;33022;-83
2023/08/29 14:47:28;;;;;;;4.12;3.37;;;;;;;26.04;88.70;99102.91;5254633;33;34247;-83
2023/08/29 14:50:30;;;;;;;5.80;3.60;;;;;;;25.71;89.74;99093.97;5230220;33;33751;-83
2023/08/29 14:53:34;;;;;;;5.25;3.33;;;;;;;25.31;92.69;99091.78;5240947;33;33267;-83
2023/08/29 14:56:37;;;;;;;5.12;3.50;;;;;;;25.33;96.83;99094.22;5253637;33;33969;-83
2023/08/29 14:59:40;;;;;;;4.18;3.30;;;;;;;25.28;95.10;99102.59;5229931;33;33394;-83
2023/08/29 15:02:44;;;;;;;6.40;3.47;;;;;;;25.42;94.77;99097.06;5230274;33;35082;-83
2023/08/29 15:05:54;;;;;;;5.62;3.62;;;;;;;25.25;97.74;99095.75;5242187;33;34189;-83
2023/08/29 15:08:57;;;;;;;4.70;3.60;;;;;;;25.25;96.20;99095.75;5254249;33;32938;-83
2023/08/29 15:12:00;;;;;;;5.72;3.45;;;;;;;25.05;98.07;99087.88;5254311;33;33577;-83
2023/08/29 15:15:04;;;;;;;6.05;3.72;;;;;;;25.05;99.93;99094.19;5229880;33;33279;-83
2023/08/29 15:18:07;;;;;;;5.60;3.42;;;;;;;25.00;98.37;99087.97;5249670;33;278803;-83
2023/08/29 15:21:11;;;;;;;6.12;3.62;;;;;;;25.08;99.30;99088.06;5248084;33;34846;-83
2023/08/29 15:24:14;;;;;;;5.78;3.85;;;;;;;24.96;98.00;99087.75;5238267;33;34875;-83
2023/08/29 15:27:17;;;;;;;5.97;4.10;;;;;;;24.93;96.80;99082.06;5254457;33;33318;-83
2023/08/29 15:30:20;;;;;;;6.60;4.65;;;;;;;24.97;97.47;99075.62;5241608;33;33715;-83
2023/08/29 15:33:25;;;;;;;9.13;3.90;;;;;;;24.80;96.10;99078.16;5241726;33;33572;-83
2023/08/29 15:36:28;;;;;;;6.47;4.50;;;;;;;24.80;95.79;99070.69;5241415;33;33295;-83
2023/08/29 15:39:33;;;;;;;8.57;4.10;;;;;;;24.98;98.23;99068.16;5230443;33;33385;-83
2023/08/29 15:42:37;;;;;;;5.87;4.50;;;;;;;25.10;95.91;99066.56;5254423;33;34231;-83
2023/08/29 15:45:46;;;;;;;6.65;4.18;;;;;;;25.15;96.63;99065.66;5241483;33;33526;-83
2023/08/29 15:48:49;;;;;;;6.47;4.07;;;;;;;25.27;94.39;99071.50;5241412;33;33594;-83
2023/08/29 15:51:52;;;;;;;4.93;3.97;;;;;;;25.10;95.46;99063.00;5241314;33;33365;-83
